createdAt,value
2023-03-26T00:01:29.780Z,1.27
2023-03-26T00:03:58.022Z,0.77
2023-03-26T00:06:28.875Z,0.73
2023-03-26T00:08:58.219Z,0.80
2023-03-26T00:11:27.966Z,0.60
2023-03-26T00:13:59.148Z,0.90
2023-03-26T00:16:30.170Z,0.75
2023-03-26T00:18:58.081Z,0.70
2023-03-26T00:21:27.876Z,0.90
2023-03-26T00:24:07.584Z,0.85
2023-03-26T00:26:37.695Z,0.70
2023-03-26T00:29:06.715Z,0.60
2023-03-26T00:31:34.811Z,0.82
2023-03-26T00:34:03.899Z,0.80
2023-03-26T00:36:32.206Z,0.60
2023-03-26T00:38:59.712Z,0.80
2023-03-26T00:41:31.087Z,0.60
2023-03-26T00:44:00.149Z,0.70
2023-03-26T00:46:30.784Z,0.57
2023-03-26T00:48:59.762Z,0.52
2023-03-26T00:51:28.890Z,0.50
2023-03-26T00:53:59.467Z,0.70
2023-03-26T00:56:27.130Z,0.70
2023-03-26T00:58:54.716Z,0.50
2023-03-26T01:01:28.704Z,0.77
2023-03-26T01:04:07.321Z,0.80
2023-03-26T01:06:37.944Z,0.80
2023-03-26T01:09:15.889Z,0.80
2023-03-26T01:11:44.404Z,0.80
2023-03-26T01:14:16.324Z,0.73
2023-03-26T01:17:06.045Z,0.80
2023-03-26T01:19:56.216Z,0.73
2023-03-26T01:22:25.916Z,0.80
2023-03-26T01:24:56.221Z,0.98
2023-03-26T01:27:32.317Z,1.08
2023-03-26T01:30:12.114Z,0.98
2023-03-26T01:33:16.242Z,0.85
2023-03-26T01:35:50.399Z,1.00
2023-03-26T01:38:23.790Z,0.80
2023-03-26T01:40:51.737Z,0.85
2023-03-26T01:43:37.038Z,1.17
2023-03-26T01:46:07.247Z,0.97
2023-03-26T01:48:41.419Z,0.80
2023-03-26T01:51:10.500Z,0.75
2023-03-26T01:53:42.324Z,1.02
2023-03-26T01:56:12.814Z,1.05
2023-03-26T01:58:43.921Z,0.98
2023-03-26T02:01:31.152Z,1.00
2023-03-26T02:04:09.631Z,0.70
2023-03-26T02:06:47.983Z,0.65
2023-03-26T02:09:20.425Z,0.90
2023-03-26T02:11:48.297Z,0.82
2023-03-26T02:14:16.479Z,0.80
2023-03-26T02:16:46.940Z,0.80
2023-03-26T02:19:21.662Z,0.70
2023-03-26T02:21:51.488Z,0.88
2023-03-26T02:24:19.974Z,0.77
2023-03-26T02:26:48.020Z,0.60
2023-03-26T02:29:19.442Z,0.75
2023-03-26T02:31:48.502Z,0.70
2023-03-26T02:34:16.906Z,0.60
2023-03-26T02:36:46.941Z,0.80
2023-03-26T02:39:14.629Z,0.60
2023-03-26T02:41:43.391Z,0.80
2023-03-26T02:44:11.105Z,0.62
2023-03-26T02:46:41.674Z,0.65
2023-03-26T02:49:11.037Z,0.70
2023-03-26T02:51:38.515Z,0.60
2023-03-26T02:54:07.182Z,0.60
2023-03-26T02:56:35.982Z,0.70
2023-03-26T02:59:04.456Z,0.50
2023-03-26T03:01:35.122Z,0.75
2023-03-26T03:04:04.341Z,0.75
2023-03-26T03:06:32.850Z,0.90
2023-03-26T03:09:02.692Z,0.68
2023-03-26T03:11:32.426Z,1.00
2023-03-26T03:13:59.862Z,0.70
2023-03-26T03:16:27.801Z,0.62
2023-03-26T03:18:58.033Z,0.85
2023-03-26T03:21:28.490Z,1.23
2023-03-26T03:23:56.470Z,0.80
2023-03-26T03:26:29.923Z,1.08
2023-03-26T03:29:00.762Z,0.80
2023-03-26T03:31:28.477Z,1.15
2023-03-26T03:33:57.222Z,1.10
2023-03-26T03:36:27.982Z,1.25
2023-03-26T03:38:55.939Z,0.90
2023-03-26T03:41:23.749Z,1.30
2023-03-26T03:43:51.933Z,1.17
2023-03-26T03:46:19.675Z,1.30
2023-03-26T03:48:50.385Z,1.20
2023-03-26T03:51:18.681Z,1.10
2023-03-26T03:53:46.266Z,1.58
2023-03-26T03:56:14.808Z,1.10
2023-03-26T03:58:46.365Z,1.17
2023-03-26T04:01:15.262Z,1.10
2023-03-26T04:03:46.382Z,0.95
2023-03-26T04:06:19.140Z,0.80
2023-03-26T04:08:49.590Z,0.90
2023-03-26T04:11:17.207Z,0.90
2023-03-26T04:13:45.849Z,1.02
2023-03-26T04:16:15.058Z,0.88
2023-03-26T04:18:42.438Z,1.02
2023-03-26T04:21:30.358Z,1.00
2023-03-26T04:23:58.058Z,0.88
2023-03-26T04:26:30.823Z,0.82
2023-03-26T04:29:00.997Z,0.65
2023-03-26T04:31:32.032Z,1.05
2023-03-26T04:34:06.282Z,1.00
2023-03-26T04:36:35.545Z,0.82
2023-03-26T04:39:05.159Z,0.88
2023-03-26T04:41:34.022Z,0.90
2023-03-26T04:44:02.164Z,0.90
2023-03-26T04:46:33.737Z,1.10
2023-03-26T04:49:02.089Z,1.20
2023-03-26T04:51:39.526Z,1.15
2023-03-26T04:54:12.664Z,0.90
2023-03-26T04:56:46.679Z,1.00
2023-03-26T04:59:26.050Z,0.98
2023-03-26T05:01:54.438Z,0.90
2023-03-26T05:04:22.607Z,1.10
2023-03-26T05:06:54.300Z,0.85
2023-03-26T05:09:22.777Z,0.80
2023-03-26T05:11:51.838Z,0.90
2023-03-26T05:14:19.686Z,0.73
2023-03-26T05:16:50.328Z,0.77
2023-03-26T05:19:17.874Z,0.82
2023-03-26T05:21:46.024Z,0.60
2023-03-26T05:24:13.919Z,1.10
2023-03-26T05:26:41.609Z,0.85
2023-03-26T05:29:09.170Z,0.90
2023-03-26T05:31:37.904Z,0.52
2023-03-26T05:34:06.748Z,0.62
2023-03-26T05:36:34.397Z,0.80
2023-03-26T05:39:03.435Z,0.70
2023-03-26T05:41:34.740Z,0.68
2023-03-26T05:44:02.437Z,0.70
2023-03-26T05:46:30.273Z,0.80
2023-03-26T05:48:57.675Z,0.80
2023-03-26T05:51:25.388Z,0.80
2023-03-26T05:53:56.834Z,0.70
2023-03-26T05:56:26.279Z,0.75
2023-03-26T05:58:57.394Z,1.10
2023-03-26T06:01:27.283Z,0.80
2023-03-26T06:03:57.300Z,1.00
2023-03-26T06:06:26.059Z,1.00
2023-03-26T06:09:01.874Z,0.70
2023-03-26T06:11:31.934Z,0.70
2023-03-26T06:14:00.478Z,0.70
2023-03-26T06:16:28.543Z,0.90
2023-03-26T06:18:57.570Z,0.98
2023-03-26T06:21:26.628Z,0.80
2023-03-26T06:23:55.305Z,0.80
2023-03-26T06:26:26.115Z,1.30
2023-03-26T06:28:53.944Z,0.82
2023-03-26T06:31:21.626Z,1.08
2023-03-26T06:33:49.527Z,1.00
2023-03-26T06:36:17.151Z,1.08
2023-03-26T06:38:44.721Z,0.85
2023-03-26T06:41:12.601Z,0.80
2023-03-26T06:43:40.409Z,0.80
2023-03-26T06:46:11.164Z,0.98
2023-03-26T06:48:42.209Z,0.77
2023-03-26T06:51:12.583Z,0.70
2023-03-26T06:53:41.280Z,1.02
2023-03-26T06:56:09.486Z,1.42
2023-03-26T06:58:37.396Z,1.98
2023-03-26T07:01:17.800Z,2.00
2023-03-26T07:03:59.977Z,1.75
2023-03-26T07:06:37.351Z,1.73
2023-03-26T07:09:08.123Z,1.50
2023-03-26T07:11:38.254Z,1.55
2023-03-26T07:14:07.972Z,1.65
2023-03-26T07:16:36.755Z,1.65
2023-03-26T07:19:07.188Z,1.45
2023-03-26T07:21:35.369Z,1.45
2023-03-26T07:24:04.549Z,1.50
2023-03-26T07:26:39.131Z,1.12
2023-03-26T07:29:21.033Z,1.60
2023-03-26T07:32:09.693Z,1.40
2023-03-26T07:34:49.158Z,1.50
2023-03-26T07:37:22.890Z,1.40
2023-03-26T07:39:59.488Z,1.40
2023-03-26T07:42:40.499Z,1.80
2023-03-26T07:45:39.631Z,1.57
2023-03-26T07:48:21.112Z,1.30
2023-03-26T07:50:49.620Z,1.80
2023-03-26T07:53:18.769Z,2.28
2023-03-26T07:55:52.628Z,2.05
2023-03-26T07:58:39.737Z,1.85
2023-03-26T08:01:34.602Z,1.83
2023-03-26T08:04:26.159Z,1.60
2023-03-26T08:07:08.495Z,1.80
2023-03-26T08:10:00.119Z,1.80
2023-03-26T08:12:37.246Z,1.52
2023-03-26T08:15:40.785Z,1.37
2023-03-26T08:18:20.262Z,1.35
2023-03-26T08:20:50.192Z,1.80
2023-03-26T08:23:27.933Z,1.20
2023-03-26T08:26:19.787Z,1.75
2023-03-26T08:28:58.712Z,1.55
2023-03-26T08:31:35.064Z,1.50
2023-03-26T08:34:02.793Z,1.20
2023-03-26T08:36:30.572Z,1.02
2023-03-26T08:38:59.595Z,1.20
2023-03-26T08:41:46.292Z,0.82
2023-03-26T08:44:35.937Z,1.50
2023-03-26T08:47:36.373Z,1.33
2023-03-26T08:50:13.540Z,0.90
2023-03-26T08:52:46.807Z,1.00
2023-03-26T08:55:23.922Z,1.50
2023-03-26T08:58:13.138Z,1.10
2023-03-26T09:01:18.698Z,1.10
2023-03-26T09:03:58.902Z,1.10
2023-03-26T09:06:52.792Z,0.85
2023-03-26T09:09:47.914Z,0.90
2023-03-26T09:12:47.157Z,0.70
2023-03-26T09:15:23.777Z,0.70
2023-03-26T09:18:29.095Z,0.80
2023-03-26T09:21:27.677Z,1.10
2023-03-26T09:24:17.865Z,1.05
2023-03-26T09:26:48.965Z,1.23
2023-03-26T09:29:41.837Z,1.35
2023-03-26T09:32:27.806Z,1.40
2023-03-26T09:35:13.444Z,1.30
2023-03-26T09:37:56.075Z,1.05
2023-03-26T09:40:47.301Z,1.50
2023-03-26T09:43:20.866Z,0.98
2023-03-26T09:46:20.917Z,1.23
2023-03-26T09:49:37.461Z,1.00
2023-03-26T09:52:23.825Z,1.17
2023-03-26T09:54:54.190Z,1.00
2023-03-26T09:58:08.475Z,0.90
2023-03-26T10:00:50.074Z,1.00
2023-03-26T10:03:56.493Z,0.95
2023-03-26T10:06:32.241Z,0.85
2023-03-26T10:09:08.210Z,0.88
2023-03-26T10:11:54.316Z,1.10
2023-03-26T10:14:28.008Z,1.15
2023-03-26T10:17:05.444Z,1.20
2023-03-26T10:19:39.359Z,0.93
2023-03-26T10:22:38.578Z,0.88
2023-03-26T10:25:06.412Z,21.50
2023-03-26T10:27:46.173Z,3.62
2023-03-26T10:30:41.470Z,3.03
2023-03-26T10:33:35.380Z,1.87
2023-03-26T10:36:37.103Z,1.20
2023-03-26T10:39:37.289Z,0.88
2023-03-26T10:42:24.512Z,1.25
2023-03-26T10:45:27.949Z,2.40
2023-03-26T10:48:18.803Z,1.50
2023-03-26T10:51:17.055Z,1.90
2023-03-26T10:54:01.095Z,1.50
2023-03-26T10:56:39.420Z,1.80
2023-03-26T10:59:10.564Z,0.80
2023-03-26T11:01:41.657Z,1.02
2023-03-26T11:04:16.385Z,1.15
2023-03-26T11:06:59.107Z,2.30
2023-03-26T11:09:41.810Z,4.22
2023-03-26T11:12:26.210Z,1.45
2023-03-26T11:15:02.030Z,2.12
2023-03-26T11:17:42.991Z,1.60
2023-03-26T11:20:18.044Z,1.83
2023-03-26T11:23:08.993Z,1.58
2023-03-26T11:25:58.860Z,1.58
2023-03-26T11:28:33.015Z,1.23
2023-03-26T11:31:20.397Z,1.00
2023-03-26T11:33:51.756Z,1.30
2023-03-26T11:36:24.548Z,1.10
2023-03-26T11:38:54.185Z,1.00
2023-03-26T11:41:24.778Z,1.35
2023-03-26T11:43:57.464Z,1.08
2023-03-26T11:46:26.981Z,1.10
2023-03-26T11:49:08.637Z,0.85
2023-03-26T11:51:38.055Z,0.62
2023-03-26T11:54:08.047Z,0.68
2023-03-26T11:57:04.389Z,0.80
2023-03-26T11:59:45.177Z,0.65
2023-03-26T12:02:25.174Z,0.73
2023-03-26T12:04:56.324Z,0.80
2023-03-26T12:07:32.190Z,1.02
2023-03-26T12:10:18.049Z,0.60
2023-03-26T12:12:47.938Z,0.47
2023-03-26T12:15:18.968Z,0.37
2023-03-26T12:17:48.960Z,0.60
2023-03-26T12:20:26.233Z,0.50
2023-03-26T12:23:01.830Z,0.50
2023-03-26T12:25:32.036Z,0.22
2023-03-26T12:28:14.897Z,0.40
2023-03-26T12:31:02.814Z,0.40
2023-03-26T12:33:35.048Z,0.47
2023-03-26T12:36:24.742Z,0.35
2023-03-26T12:39:15.963Z,0.47
2023-03-26T12:43:51.319Z,0.40
2023-03-26T12:44:58.950Z,0.30
2023-03-26T12:47:57.928Z,0.80
2023-03-26T12:50:34.100Z,0.47
2023-03-26T12:53:15.901Z,0.50
2023-03-26T12:55:53.374Z,0.50
2023-03-26T12:58:38.666Z,0.77
2023-03-26T13:01:06.858Z,0.73
2023-03-26T13:04:03.482Z,0.60
2023-03-26T13:06:58.883Z,3.47
2023-03-26T13:09:37.569Z,0.65
2023-03-26T13:12:14.412Z,0.70
2023-03-26T13:15:00.894Z,0.50
2023-03-26T13:17:56.766Z,0.75
2023-03-26T13:20:51.151Z,0.60
2023-03-26T13:23:26.806Z,0.37
2023-03-26T13:28:37.065Z,0.80
2023-03-26T13:31:18.576Z,0.70
2023-03-26T13:33:48.901Z,0.60
2023-03-26T13:36:24.559Z,0.60
2023-03-26T13:41:43.767Z,0.50
2023-03-26T13:44:28.778Z,0.88
2023-03-26T13:47:04.086Z,0.30
2023-03-26T13:49:37.693Z,0.40
2023-03-26T13:52:26.713Z,0.50
2023-03-26T13:55:23.224Z,0.70
2023-03-26T13:58:02.094Z,0.77
2023-03-26T14:00:54.704Z,0.30
2023-03-26T14:03:35.864Z,0.35
2023-03-26T14:06:11.893Z,0.45
2023-03-26T14:08:45.624Z,0.32
2023-03-26T14:11:17.965Z,0.40
2023-03-26T14:13:56.165Z,0.40
2023-03-26T14:16:35.637Z,0.32
2023-03-26T14:19:21.670Z,0.50
2023-03-26T14:22:13.890Z,0.30
2023-03-26T14:24:51.567Z,0.93
2023-03-26T14:27:32.363Z,0.40
2023-03-26T14:30:15.164Z,0.70
2023-03-26T14:33:27.912Z,0.40
2023-03-26T14:36:11.596Z,0.30
2023-03-26T14:38:59.341Z,0.30
2023-03-26T14:41:36.769Z,0.30
2023-03-26T14:44:52.808Z,0.32
2023-03-26T14:47:22.741Z,0.40
2023-03-26T14:50:35.983Z,0.30
2023-03-26T14:53:14.426Z,0.30
2023-03-26T14:56:07.644Z,0.35
2023-03-26T14:59:20.945Z,0.45
2023-03-26T15:02:23.380Z,0.50
2023-03-26T15:04:54.014Z,0.37
2023-03-26T15:07:41.367Z,0.50
2023-03-26T15:10:18.625Z,0.40
2023-03-26T15:13:17.830Z,0.50
2023-03-26T15:16:28.120Z,0.57
2023-03-26T15:19:22.936Z,0.40
2023-03-26T15:22:18.597Z,0.70
2023-03-26T15:25:19.472Z,0.55
2023-03-26T15:28:13.508Z,0.80
2023-03-26T15:31:10.968Z,0.40
2023-03-26T15:33:44.352Z,0.40
2023-03-26T15:37:02.910Z,0.40
2023-03-26T15:40:11.503Z,0.40
2023-03-26T15:42:53.895Z,0.52
2023-03-26T15:45:48.001Z,0.50
2023-03-26T15:48:32.472Z,0.73
2023-03-26T15:51:28.656Z,0.70
2023-03-26T15:54:08.863Z,0.65
2023-03-26T15:56:58.570Z,0.60
2023-03-26T16:00:01.679Z,0.65
2023-03-26T16:02:39.210Z,0.80
2023-03-26T16:05:23.377Z,0.62
2023-03-26T16:08:09.243Z,0.70
2023-03-26T16:10:45.201Z,0.90
2023-03-26T16:13:40.272Z,0.82
2023-03-26T16:19:13.291Z,1.00
2023-03-26T16:21:59.358Z,1.02
2023-03-26T16:24:36.244Z,1.15
2023-03-26T16:27:15.331Z,1.10
2023-03-26T16:30:16.212Z,1.33
2023-03-26T16:33:07.832Z,1.33
2023-03-26T16:35:42.286Z,1.00
2023-03-26T16:38:19.691Z,1.35
2023-03-26T16:41:17.168Z,1.27
2023-03-26T16:44:11.177Z,1.30
2023-03-26T16:47:11.914Z,1.35
2023-03-26T16:50:07.372Z,1.85
2023-03-26T16:52:57.651Z,1.77
2023-03-26T16:55:51.983Z,2.03
2023-03-26T16:58:38.277Z,1.90
2023-03-26T17:01:28.469Z,2.08
2023-03-26T17:04:00.229Z,1.98
2023-03-26T17:06:54.324Z,2.58
2023-03-26T17:09:56.046Z,2.50
2023-03-26T17:12:36.366Z,2.10
2023-03-26T17:15:23.859Z,2.40
2023-03-26T17:18:04.782Z,2.78
2023-03-26T17:21:09.051Z,2.50
2023-03-26T17:23:48.894Z,2.97
2023-03-26T17:26:47.885Z,2.72
2023-03-26T17:29:52.117Z,2.78
2023-03-26T17:32:21.919Z,3.08
2023-03-26T17:34:50.846Z,3.50
2023-03-26T17:37:44.896Z,2.80
2023-03-26T17:40:32.963Z,2.47
2023-03-26T17:43:12.605Z,3.55
2023-03-26T17:46:02.754Z,3.20
2023-03-26T17:48:37.605Z,3.60
2023-03-26T17:51:40.653Z,3.60
2023-03-26T17:54:38.368Z,3.78
2023-03-26T17:57:15.180Z,3.83
2023-03-26T17:59:45.542Z,3.40
2023-03-26T18:02:17.217Z,3.70
2023-03-26T18:04:48.804Z,3.55
2023-03-26T18:07:29.350Z,3.65
2023-03-26T18:10:18.779Z,3.33
2023-03-26T18:12:58.922Z,3.70
2023-03-26T18:15:57.852Z,3.58
2023-03-26T18:18:34.197Z,3.40
2023-03-26T18:21:07.723Z,3.40
2023-03-26T18:23:40.184Z,3.58
2023-03-26T18:26:19.983Z,3.08
2023-03-26T18:29:30.227Z,3.15
2023-03-26T18:32:10.534Z,3.50
2023-03-26T18:34:51.691Z,3.30
2023-03-26T18:37:26.745Z,3.12
2023-03-26T18:40:12.598Z,3.37
2023-03-26T18:45:22.701Z,4.47
2023-03-26T18:47:57.388Z,3.78
2023-03-26T18:50:35.447Z,4.22
2023-03-26T18:53:30.438Z,4.85
2023-03-26T18:55:59.137Z,4.93
2023-03-26T18:58:35.052Z,4.90
2023-03-26T19:01:16.973Z,5.50
2023-03-26T19:03:55.717Z,4.93
2023-03-26T19:06:26.490Z,5.97
2023-03-26T19:08:56.057Z,4.87
2023-03-26T19:11:25.586Z,5.40
2023-03-26T19:14:17.381Z,5.93
2023-03-26T19:17:07.472Z,5.60
2023-03-26T19:19:39.161Z,5.90
2023-03-26T19:22:14.290Z,5.62
2023-03-26T19:24:45.170Z,5.70
2023-03-26T19:27:15.814Z,6.07
2023-03-26T19:29:45.548Z,5.43
2023-03-26T19:32:23.558Z,7.90
2023-03-26T19:34:53.777Z,6.85
2023-03-26T19:37:26.286Z,6.07
2023-03-26T19:40:02.795Z,6.50
2023-03-26T19:42:43.072Z,6.05
2023-03-26T19:45:18.567Z,5.82
2023-03-26T19:47:54.727Z,5.95
2023-03-26T19:50:34.536Z,5.60
2023-03-26T19:53:16.581Z,6.05
2023-03-26T19:55:59.159Z,5.47
2023-03-26T19:58:28.666Z,5.87
2023-03-26T20:01:00.320Z,5.10
2023-03-26T20:03:41.953Z,4.43
2023-03-26T20:06:17.052Z,5.32
2023-03-26T20:08:47.186Z,5.60
2023-03-26T20:11:21.551Z,5.10
2023-03-26T20:13:50.622Z,4.70
2023-03-26T20:16:30.265Z,4.57
2023-03-26T20:19:02.651Z,4.57
2023-03-26T20:21:41.800Z,3.85
2023-03-26T20:24:16.151Z,3.67
2023-03-26T20:26:46.591Z,3.25
2023-03-26T20:29:17.504Z,4.90
2023-03-26T20:31:46.420Z,3.67
2023-03-26T20:34:20.795Z,4.18
2023-03-26T20:36:55.039Z,4.65
2023-03-26T20:39:25.285Z,4.37
2023-03-26T20:41:54.433Z,4.35
2023-03-26T20:44:22.873Z,4.20
2023-03-26T20:46:51.095Z,4.43
2023-03-26T20:49:19.658Z,4.75
2023-03-26T20:51:49.288Z,4.97
2023-03-26T20:54:20.269Z,4.68
2023-03-26T20:56:49.199Z,4.50
2023-03-26T20:59:26.853Z,4.22
2023-03-26T21:02:00.215Z,5.30
2023-03-26T21:04:28.168Z,5.78
2023-03-26T21:07:07.208Z,5.25
2023-03-26T21:09:39.525Z,4.55
2023-03-26T21:12:22.154Z,4.15
2023-03-26T21:14:50.105Z,3.47
2023-03-26T21:17:20.695Z,3.75
2023-03-26T21:19:48.439Z,3.15
2023-03-26T21:22:22.612Z,2.95
2023-03-26T21:24:52.763Z,2.50
2023-03-26T21:27:54.050Z,2.62
2023-03-26T21:30:22.211Z,2.15
2023-03-26T21:32:51.399Z,2.53
2023-03-26T21:35:19.667Z,2.35
2023-03-26T21:37:48.770Z,2.28
2023-03-26T21:40:20.485Z,2.28
2023-03-26T21:42:51.601Z,2.03
2023-03-26T21:45:19.980Z,2.60
2023-03-26T21:47:48.536Z,2.22
2023-03-26T21:50:18.816Z,2.72
2023-03-26T21:52:50.861Z,2.00
2023-03-26T21:55:23.520Z,2.53
2023-03-26T21:57:54.777Z,2.03
2023-03-26T22:00:33.529Z,1.83
2023-03-26T22:03:23.236Z,2.20
2023-03-26T22:05:56.503Z,2.12
2023-03-26T22:08:31.425Z,1.80
2023-03-26T22:10:58.857Z,1.42
2023-03-26T22:13:27.241Z,1.52
2023-03-26T22:15:54.765Z,1.60
2023-03-26T22:18:24.526Z,1.77
2023-03-26T22:20:52.862Z,1.65
2023-03-26T22:23:20.620Z,2.40
2023-03-26T22:25:48.048Z,1.90
2023-03-26T22:28:16.398Z,1.75
2023-03-26T22:30:43.864Z,1.67
2023-03-26T22:33:12.186Z,1.55
2023-03-26T22:35:41.910Z,1.90
2023-03-26T22:38:10.028Z,2.10
2023-03-26T22:40:37.937Z,1.80
2023-03-26T22:43:05.612Z,2.20
2023-03-26T22:45:32.992Z,2.58
2023-03-26T22:48:04.470Z,3.03
2023-03-26T22:50:33.008Z,2.10
2023-03-26T22:53:00.569Z,2.33
2023-03-26T22:55:29.072Z,2.12
2023-03-26T22:57:57.758Z,1.85
2023-03-26T23:00:26.566Z,3.28
2023-03-26T23:02:55.999Z,2.35
2023-03-26T23:05:23.773Z,2.25
2023-03-26T23:07:52.234Z,1.70
2023-03-26T23:10:21.644Z,1.87
2023-03-26T23:12:49.686Z,1.83
2023-03-26T23:15:17.117Z,1.40
2023-03-26T23:17:44.520Z,2.00
2023-03-26T23:20:23.327Z,1.48
2023-03-26T23:22:51.382Z,1.58
2023-03-26T23:25:19.926Z,2.12
2023-03-26T23:27:48.461Z,1.45
2023-03-26T23:30:16.689Z,1.80
2023-03-26T23:32:44.138Z,1.50
2023-03-26T23:35:11.839Z,1.60
2023-03-26T23:37:42.334Z,1.50
2023-03-26T23:40:10.772Z,1.50
2023-03-26T23:42:38.468Z,1.60
2023-03-26T23:45:06.682Z,1.40
2023-03-26T23:47:35.009Z,1.70
2023-03-26T23:50:03.842Z,1.70
2023-03-26T23:52:31.770Z,2.00
2023-03-26T23:54:59.936Z,2.20
2023-03-26T23:57:28.320Z,1.95
2023-03-26T23:59:56.219Z,2.00
